sensor_id;sensor_type;location;lat;lon;timestamp;P1;durP1;ratioP1;P2;durP2;ratioP2
17596;SDS011;8917;50.942;6.946;2023-03-12T00:00:05;5.77;;;3.50;;
17596;SDS011;8917;50.942;6.946;2023-03-12T00:02:36;6.50;;;3.60;;
17596;SDS011;8917;50.942;6.946;2023-03-12T00:05:04;5.60;;;3.90;;
17596;SDS011;8917;50.942;6.946;2023-03-12T00:07:31;6.73;;;4.20;;
17596;SDS011;8917;50.942;6.946;2023-03-12T00:10:00;8.53;;;3.83;;
17596;SDS011;8917;50.942;6.946;2023-03-12T00:12:27;6.20;;;3.73;;
17596;SDS011;8917;50.942;6.946;2023-03-12T00:14:54;6.03;;;3.93;;
17596;SDS011;8917;50.942;6.946;2023-03-12T00:17:22;9.80;;;4.37;;
17596;SDS011;8917;50.942;6.946;2023-03-12T00:19:51;7.30;;;4.13;;
17596;SDS011;8917;50.942;6.946;2023-03-12T00:22:18;5.87;;;4.13;;
17596;SDS011;8917;50.942;6.946;2023-03-12T00:24:49;6.17;;;4.13;;
17596;SDS011;8917;50.942;6.946;2023-03-12T00:27:16;5.87;;;3.80;;
17596;SDS011;8917;50.942;6.946;2023-03-12T00:29:43;7.23;;;4.33;;
17596;SDS011;8917;50.942;6.946;2023-03-12T00:32:10;8.73;;;4.27;;
17596;SDS011;8917;50.942;6.946;2023-03-12T00:34:37;6.57;;;4.10;;
17596;SDS011;8917;50.942;6.946;2023-03-12T00:37:07;6.77;;;4.47;;
17596;SDS011;8917;50.942;6.946;2023-03-12T00:39:35;7.23;;;3.87;;
17596;SDS011;8917;50.942;6.946;2023-03-12T00:42:02;8.90;;;4.50;;
17596;SDS011;8917;50.942;6.946;2023-03-12T00:44:29;7.40;;;4.30;;
17596;SDS011;8917;50.942;6.946;2023-03-12T00:46:57;6.17;;;3.90;;
17596;SDS011;8917;50.942;6.946;2023-03-12T00:49:24;6.17;;;3.97;;
17596;SDS011;8917;50.942;6.946;2023-03-12T00:51:51;5.60;;;4.07;;
17596;SDS011;8917;50.942;6.946;2023-03-12T00:54:20;7.20;;;4.10;;
17596;SDS011;8917;50.942;6.946;2023-03-12T00:56:48;6.47;;;4.10;;
17596;SDS011;8917;50.942;6.946;2023-03-12T00:59:15;5.53;;;3.87;;
17596;SDS011;8917;50.942;6.946;2023-03-12T01:01:42;5.50;;;4.20;;
17596;SDS011;8917;50.942;6.946;2023-03-12T01:04:10;4.83;;;3.43;;
17596;SDS011;8917;50.942;6.946;2023-03-12T01:06:37;4.80;;;4.23;;
17596;SDS011;8917;50.942;6.946;2023-03-12T01:09:05;7.50;;;3.97;;
17596;SDS011;8917;50.942;6.946;2023-03-12T01:11:34;8.57;;;4.50;;
17596;SDS011;8917;50.942;6.946;2023-03-12T01:14:02;6.83;;;4.20;;
17596;SDS011;8917;50.942;6.946;2023-03-12T01:16:29;5.57;;;3.80;;
17596;SDS011;8917;50.942;6.946;2023-03-12T01:18:57;7.63;;;4.10;;
17596;SDS011;8917;50.942;6.946;2023-03-12T01:21:25;6.73;;;3.80;;
17596;SDS011;8917;50.942;6.946;2023-03-12T01:23:52;5.30;;;4.13;;
17596;SDS011;8917;50.942;6.946;2023-03-12T01:26:19;7.40;;;3.97;;
17596;SDS011;8917;50.942;6.946;2023-03-12T01:28:48;4.60;;;3.87;;
17596;SDS011;8917;50.942;6.946;2023-03-12T01:31:16;6.10;;;4.07;;
17596;SDS011;8917;50.942;6.946;2023-03-12T01:33:43;8.00;;;4.67;;
17596;SDS011;8917;50.942;6.946;2023-03-12T01:36:15;4.80;;;3.90;;
17596;SDS011;8917;50.942;6.946;2023-03-12T01:38:42;6.07;;;3.70;;
17596;SDS011;8917;50.942;6.946;2023-03-12T01:41:09;7.67;;;4.37;;
17596;SDS011;8917;50.942;6.946;2023-03-12T01:43:37;6.53;;;4.40;;
17596;SDS011;8917;50.942;6.946;2023-03-12T01:46:21;7.60;;;3.80;;
17596;SDS011;8917;50.942;6.946;2023-03-12T01:48:50;6.33;;;3.83;;
17596;SDS011;8917;50.942;6.946;2023-03-12T01:51:19;5.50;;;4.00;;
17596;SDS011;8917;50.942;6.946;2023-03-12T01:53:50;6.50;;;4.00;;
17596;SDS011;8917;50.942;6.946;2023-03-12T01:56:19;7.83;;;4.07;;
17596;SDS011;8917;50.942;6.946;2023-03-12T01:58:47;5.40;;;3.53;;
17596;SDS011;8917;50.942;6.946;2023-03-12T02:01:16;5.70;;;3.80;;
17596;SDS011;8917;50.942;6.946;2023-03-12T02:03:46;4.87;;;3.53;;
17596;SDS011;8917;50.942;6.946;2023-03-12T02:06:14;7.30;;;3.80;;
17596;SDS011;8917;50.942;6.946;2023-03-12T02:08:42;5.57;;;3.70;;
17596;SDS011;8917;50.942;6.946;2023-03-12T02:11:10;7.70;;;3.70;;
17596;SDS011;8917;50.942;6.946;2023-03-12T02:13:37;5.27;;;3.00;;
17596;SDS011;8917;50.942;6.946;2023-03-12T02:16:05;4.33;;;3.30;;
17596;SDS011;8917;50.942;6.946;2023-03-12T02:18:32;5.77;;;3.70;;
17596;SDS011;8917;50.942;6.946;2023-03-12T02:21:07;8.37;;;3.93;;
17596;SDS011;8917;50.942;6.946;2023-03-12T02:23:39;7.57;;;3.90;;
17596;SDS011;8917;50.942;6.946;2023-03-12T02:26:09;4.33;;;3.10;;
17596;SDS011;8917;50.942;6.946;2023-03-12T02:28:38;7.20;;;3.53;;
17596;SDS011;8917;50.942;6.946;2023-03-12T02:31:09;5.93;;;3.50;;
17596;SDS011;8917;50.942;6.946;2023-03-12T02:33:36;5.87;;;3.40;;
17596;SDS011;8917;50.942;6.946;2023-03-12T02:36:04;9.70;;;3.63;;
17596;SDS011;8917;50.942;6.946;2023-03-12T02:38:34;5.43;;;2.87;;
17596;SDS011;8917;50.942;6.946;2023-03-12T02:41:03;6.20;;;3.60;;
17596;SDS011;8917;50.942;6.946;2023-03-12T02:43:32;4.80;;;3.30;;
17596;SDS011;8917;50.942;6.946;2023-03-12T02:46:00;7.40;;;3.40;;
17596;SDS011;8917;50.942;6.946;2023-03-12T02:48:27;7.20;;;3.70;;
17596;SDS011;8917;50.942;6.946;2023-03-12T02:50:54;8.53;;;3.50;;
17596;SDS011;8917;50.942;6.946;2023-03-12T02:53:21;5.40;;;3.10;;
17596;SDS011;8917;50.942;6.946;2023-03-12T02:55:48;5.73;;;3.07;;
17596;SDS011;8917;50.942;6.946;2023-03-12T02:58:16;3.77;;;3.03;;
17596;SDS011;8917;50.942;6.946;2023-03-12T03:00:44;5.40;;;3.40;;
17596;SDS011;8917;50.942;6.946;2023-03-12T03:03:11;5.47;;;3.47;;
17596;SDS011;8917;50.942;6.946;2023-03-12T03:05:39;7.17;;;3.37;;
17596;SDS011;8917;50.942;6.946;2023-03-12T03:08:06;5.77;;;3.23;;
17596;SDS011;8917;50.942;6.946;2023-03-12T03:10:33;4.83;;;3.20;;
17596;SDS011;8917;50.942;6.946;2023-03-12T03:13:00;7.23;;;3.30;;
17596;SDS011;8917;50.942;6.946;2023-03-12T03:15:28;6.63;;;3.53;;
17596;SDS011;8917;50.942;6.946;2023-03-12T03:17:56;3.57;;;3.10;;
17596;SDS011;8917;50.942;6.946;2023-03-12T03:20:27;4.77;;;2.93;;
17596;SDS011;8917;50.942;6.946;2023-03-12T03:22:54;5.70;;;2.90;;
17596;SDS011;8917;50.942;6.946;2023-03-12T03:25:22;5.17;;;3.70;;
17596;SDS011;8917;50.942;6.946;2023-03-12T03:27:49;4.50;;;3.37;;
17596;SDS011;8917;50.942;6.946;2023-03-12T03:30:16;5.63;;;3.10;;
17596;SDS011;8917;50.942;6.946;2023-03-12T03:32:45;4.87;;;3.07;;
17596;SDS011;8917;50.942;6.946;2023-03-12T03:35:16;5.40;;;3.20;;
17596;SDS011;8917;50.942;6.946;2023-03-12T03:37:43;4.87;;;3.13;;
17596;SDS011;8917;50.942;6.946;2023-03-12T03:40:11;5.03;;;3.13;;
17596;SDS011;8917;50.942;6.946;2023-03-12T03:42:38;4.90;;;3.27;;
17596;SDS011;8917;50.942;6.946;2023-03-12T03:45:06;5.67;;;2.90;;
17596;SDS011;8917;50.942;6.946;2023-03-12T03:47:34;5.53;;;3.40;;
17596;SDS011;8917;50.942;6.946;2023-03-12T03:50:02;5.93;;;3.10;;
17596;SDS011;8917;50.942;6.946;2023-03-12T03:52:31;6.23;;;3.40;;
17596;SDS011;8917;50.942;6.946;2023-03-12T03:54:58;5.30;;;2.90;;
17596;SDS011;8917;50.942;6.946;2023-03-12T03:57:25;6.30;;;3.03;;
17596;SDS011;8917;50.942;6.946;2023-03-12T03:59:53;4.63;;;3.10;;
17596;SDS011;8917;50.942;6.946;2023-03-12T04:02:20;4.40;;;2.70;;
17596;SDS011;8917;50.942;6.946;2023-03-12T04:04:47;4.43;;;2.73;;
17596;SDS011;8917;50.942;6.946;2023-03-12T04:07:14;5.03;;;3.00;;
17596;SDS011;8917;50.942;6.946;2023-03-12T04:09:43;4.93;;;2.80;;
17596;SDS011;8917;50.942;6.946;2023-03-12T04:12:10;3.43;;;2.70;;
17596;SDS011;8917;50.942;6.946;2023-03-12T04:14:38;3.83;;;2.93;;
17596;SDS011;8917;50.942;6.946;2023-03-12T04:17:05;3.53;;;2.70;;
17596;SDS011;8917;50.942;6.946;2023-03-12T04:19:33;6.07;;;2.70;;
17596;SDS011;8917;50.942;6.946;2023-03-12T04:22:01;5.93;;;2.47;;
17596;SDS011;8917;50.942;6.946;2023-03-12T04:24:28;3.77;;;2.40;;
17596;SDS011;8917;50.942;6.946;2023-03-12T04:26:57;4.43;;;2.73;;
17596;SDS011;8917;50.942;6.946;2023-03-12T04:29:24;3.60;;;2.50;;
17596;SDS011;8917;50.942;6.946;2023-03-12T04:31:51;3.67;;;2.60;;
17596;SDS011;8917;50.942;6.946;2023-03-12T04:34:18;4.30;;;3.00;;
17596;SDS011;8917;50.942;6.946;2023-03-12T04:36:46;5.23;;;2.70;;
17596;SDS011;8917;50.942;6.946;2023-03-12T04:39:15;7.17;;;2.50;;
17596;SDS011;8917;50.942;6.946;2023-03-12T04:41:42;4.57;;;3.00;;
17596;SDS011;8917;50.942;6.946;2023-03-12T04:44:10;6.53;;;2.40;;
17596;SDS011;8917;50.942;6.946;2023-03-12T04:46:38;4.63;;;2.67;;
17596;SDS011;8917;50.942;6.946;2023-03-12T04:49:05;4.30;;;2.63;;
17596;SDS011;8917;50.942;6.946;2023-03-12T04:51:32;3.07;;;2.40;;
17596;SDS011;8917;50.942;6.946;2023-03-12T04:53:59;4.40;;;2.73;;
17596;SDS011;8917;50.942;6.946;2023-03-12T04:56:26;5.13;;;2.30;;
17596;SDS011;8917;50.942;6.946;2023-03-12T04:58:54;4.90;;;2.60;;
17596;SDS011;8917;50.942;6.946;2023-03-12T05:01:23;5.40;;;2.83;;
17596;SDS011;8917;50.942;6.946;2023-03-12T05:03:52;4.33;;;2.47;;
17596;SDS011;8917;50.942;6.946;2023-03-12T05:06:19;3.33;;;2.50;;
17596;SDS011;8917;50.942;6.946;2023-03-12T05:08:47;4.17;;;2.57;;
17596;SDS011;8917;50.942;6.946;2023-03-12T05:11:14;4.13;;;2.70;;
17596;SDS011;8917;50.942;6.946;2023-03-12T05:13:42;6.67;;;2.80;;
17596;SDS011;8917;50.942;6.946;2023-03-12T05:16:09;3.53;;;2.50;;
17596;SDS011;8917;50.942;6.946;2023-03-12T05:18:38;4.40;;;2.60;;
17596;SDS011;8917;50.942;6.946;2023-03-12T05:21:06;4.53;;;2.30;;
17596;SDS011;8917;50.942;6.946;2023-03-12T05:23:34;5.40;;;2.70;;
17596;SDS011;8917;50.942;6.946;2023-03-12T05:26:03;6.50;;;3.33;;
17596;SDS011;8917;50.942;6.946;2023-03-12T05:28:31;4.27;;;2.40;;
17596;SDS011;8917;50.942;6.946;2023-03-12T05:30:58;3.80;;;2.20;;
17596;SDS011;8917;50.942;6.946;2023-03-12T05:33:26;4.87;;;2.27;;
17596;SDS011;8917;50.942;6.946;2023-03-12T05:35:55;7.07;;;2.30;;
17596;SDS011;8917;50.942;6.946;2023-03-12T05:38:22;6.23;;;2.27;;
17596;SDS011;8917;50.942;6.946;2023-03-12T05:40:50;3.40;;;2.40;;
17596;SDS011;8917;50.942;6.946;2023-03-12T05:43:18;6.60;;;2.70;;
17596;SDS011;8917;50.942;6.946;2023-03-12T05:45:45;5.63;;;2.60;;
17596;SDS011;8917;50.942;6.946;2023-03-12T05:48:12;5.47;;;2.37;;
17596;SDS011;8917;50.942;6.946;2023-03-12T05:50:40;7.23;;;2.50;;
17596;SDS011;8917;50.942;6.946;2023-03-12T05:53:08;3.53;;;2.43;;
17596;SDS011;8917;50.942;6.946;2023-03-12T05:55:36;5.33;;;3.27;;
17596;SDS011;8917;50.942;6.946;2023-03-12T05:58:04;3.33;;;2.23;;
17596;SDS011;8917;50.942;6.946;2023-03-12T06:00:31;6.40;;;2.63;;
17596;SDS011;8917;50.942;6.946;2023-03-12T06:02:59;5.63;;;2.70;;
17596;SDS011;8917;50.942;6.946;2023-03-12T06:05:26;5.47;;;2.43;;
17596;SDS011;8917;50.942;6.946;2023-03-12T06:07:54;6.60;;;2.50;;
17596;SDS011;8917;50.942;6.946;2023-03-12T06:10:22;4.57;;;2.57;;
17596;SDS011;8917;50.942;6.946;2023-03-12T06:12:49;4.47;;;2.30;;
17596;SDS011;8917;50.942;6.946;2023-03-12T06:15:17;5.57;;;2.77;;
17596;SDS011;8917;50.942;6.946;2023-03-12T06:17:44;4.13;;;2.40;;
17596;SDS011;8917;50.942;6.946;2023-03-12T06:20:11;5.13;;;2.27;;
17596;SDS011;8917;50.942;6.946;2023-03-12T06:22:38;5.30;;;2.40;;
17596;SDS011;8917;50.942;6.946;2023-03-12T06:25:06;5.23;;;2.23;;
17596;SDS011;8917;50.942;6.946;2023-03-12T06:27:34;5.13;;;2.43;;
17596;SDS011;8917;50.942;6.946;2023-03-12T06:30:02;6.23;;;2.40;;
17596;SDS011;8917;50.942;6.946;2023-03-12T06:32:29;4.43;;;2.33;;
17596;SDS011;8917;50.942;6.946;2023-03-12T06:34:56;3.80;;;2.30;;
17596;SDS011;8917;50.942;6.946;2023-03-12T06:37:24;4.87;;;2.10;;
17596;SDS011;8917;50.942;6.946;2023-03-12T06:39:52;2.77;;;2.27;;
17596;SDS011;8917;50.942;6.946;2023-03-12T06:42:19;4.23;;;2.17;;
17596;SDS011;8917;50.942;6.946;2023-03-12T06:44:48;4.07;;;2.43;;
17596;SDS011;8917;50.942;6.946;2023-03-12T06:47:15;5.70;;;2.37;;
17596;SDS011;8917;50.942;6.946;2023-03-12T06:49:42;4.27;;;2.63;;
17596;SDS011;8917;50.942;6.946;2023-03-12T06:52:09;3.43;;;2.63;;
17596;SDS011;8917;50.942;6.946;2023-03-12T06:54:36;5.27;;;2.90;;
17596;SDS011;8917;50.942;6.946;2023-03-12T06:57:04;5.70;;;2.63;;
17596;SDS011;8917;50.942;6.946;2023-03-12T06:59:31;4.77;;;2.47;;
17596;SDS011;8917;50.942;6.946;2023-03-12T07:01:59;4.80;;;2.50;;
17596;SDS011;8917;50.942;6.946;2023-03-12T07:04:26;4.23;;;2.60;;
17596;SDS011;8917;50.942;6.946;2023-03-12T07:06:54;5.50;;;2.50;;
17596;SDS011;8917;50.942;6.946;2023-03-12T07:09:21;3.83;;;2.67;;
17596;SDS011;8917;50.942;6.946;2023-03-12T07:11:48;5.17;;;2.80;;
17596;SDS011;8917;50.942;6.946;2023-03-12T07:14:15;3.03;;;2.50;;
17596;SDS011;8917;50.942;6.946;2023-03-12T07:16:44;4.07;;;2.20;;
17596;SDS011;8917;50.942;6.946;2023-03-12T07:19:12;3.37;;;2.30;;
17596;SDS011;8917;50.942;6.946;2023-03-12T07:21:39;5.57;;;2.43;;
17596;SDS011;8917;50.942;6.946;2023-03-12T07:24:07;3.37;;;2.37;;
17596;SDS011;8917;50.942;6.946;2023-03-12T07:26:34;3.53;;;2.23;;
17596;SDS011;8917;50.942;6.946;2023-03-12T07:29:01;4.43;;;2.30;;
17596;SDS011;8917;50.942;6.946;2023-03-12T07:31:29;5.57;;;2.30;;
17596;SDS011;8917;50.942;6.946;2023-03-12T07:33:56;6.07;;;2.63;;
17596;SDS011;8917;50.942;6.946;2023-03-12T07:36:24;3.33;;;2.23;;
17596;SDS011;8917;50.942;6.946;2023-03-12T07:38:53;4.63;;;2.50;;
17596;SDS011;8917;50.942;6.946;2023-03-12T07:41:20;7.17;;;2.60;;
17596;SDS011;8917;50.942;6.946;2023-03-12T07:43:48;4.60;;;2.40;;
17596;SDS011;8917;50.942;6.946;2023-03-12T07:46:15;3.57;;;2.47;;
17596;SDS011;8917;50.942;6.946;2023-03-12T07:48:42;5.57;;;2.37;;
17596;SDS011;8917;50.942;6.946;2023-03-12T07:51:09;3.77;;;2.30;;
17596;SDS011;8917;50.942;6.946;2023-03-12T07:53:38;3.23;;;2.47;;
17596;SDS011;8917;50.942;6.946;2023-03-12T07:56:05;5.10;;;2.40;;
17596;SDS011;8917;50.942;6.946;2023-03-12T07:58:33;4.87;;;2.60;;
17596;SDS011;8917;50.942;6.946;2023-03-12T08:01:00;6.33;;;2.57;;
17596;SDS011;8917;50.942;6.946;2023-03-12T08:03:28;4.87;;;2.40;;
17596;SDS011;8917;50.942;6.946;2023-03-12T08:05:58;4.87;;;2.20;;
17596;SDS011;8917;50.942;6.946;2023-03-12T08:08:26;4.07;;;2.47;;
17596;SDS011;8917;50.942;6.946;2023-03-12T08:10:56;3.70;;;2.50;;
17596;SDS011;8917;50.942;6.946;2023-03-12T08:13:23;5.73;;;2.83;;
17596;SDS011;8917;50.942;6.946;2023-03-12T08:15:52;5.37;;;2.90;;
17596;SDS011;8917;50.942;6.946;2023-03-12T08:18:20;5.40;;;2.57;;
17596;SDS011;8917;50.942;6.946;2023-03-12T08:20:48;4.80;;;2.37;;
17596;SDS011;8917;50.942;6.946;2023-03-12T08:23:16;4.33;;;2.53;;
17596;SDS011;8917;50.942;6.946;2023-03-12T08:25:44;5.30;;;2.57;;
17596;SDS011;8917;50.942;6.946;2023-03-12T08:28:13;4.40;;;2.50;;
17596;SDS011;8917;50.942;6.946;2023-03-12T08:30:44;4.43;;;2.67;;
17596;SDS011;8917;50.942;6.946;2023-03-12T08:33:11;5.93;;;2.73;;
17596;SDS011;8917;50.942;6.946;2023-03-12T08:35:38;4.37;;;2.50;;
17596;SDS011;8917;50.942;6.946;2023-03-12T08:38:06;6.80;;;2.90;;
17596;SDS011;8917;50.942;6.946;2023-03-12T08:40:33;4.73;;;2.80;;
17596;SDS011;8917;50.942;6.946;2023-03-12T08:43:00;5.33;;;3.13;;
17596;SDS011;8917;50.942;6.946;2023-03-12T08:45:29;4.30;;;2.60;;
17596;SDS011;8917;50.942;6.946;2023-03-12T08:47:56;3.50;;;2.93;;
17596;SDS011;8917;50.942;6.946;2023-03-12T08:50:23;4.27;;;3.00;;
17596;SDS011;8917;50.942;6.946;2023-03-12T08:52:53;3.17;;;2.40;;
17596;SDS011;8917;50.942;6.946;2023-03-12T08:55:20;4.30;;;2.77;;
17596;SDS011;8917;50.942;6.946;2023-03-12T08:57:48;3.53;;;2.73;;
17596;SDS011;8917;50.942;6.946;2023-03-12T09:00:15;6.13;;;2.87;;
17596;SDS011;8917;50.942;6.946;2023-03-12T09:02:44;5.33;;;3.03;;
17596;SDS011;8917;50.942;6.946;2023-03-12T09:05:11;5.20;;;2.70;;
17596;SDS011;8917;50.942;6.946;2023-03-12T09:07:39;4.43;;;2.80;;
17596;SDS011;8917;50.942;6.946;2023-03-12T09:10:06;4.23;;;3.07;;
17596;SDS011;8917;50.942;6.946;2023-03-12T09:12:33;4.70;;;2.70;;
17596;SDS011;8917;50.942;6.946;2023-03-12T09:15:00;4.43;;;3.00;;
17596;SDS011;8917;50.942;6.946;2023-03-12T09:17:28;4.20;;;2.70;;
17596;SDS011;8917;50.942;6.946;2023-03-12T09:19:57;6.40;;;3.23;;
17596;SDS011;8917;50.942;6.946;2023-03-12T09:22:24;4.27;;;3.10;;
17596;SDS011;8917;50.942;6.946;2023-03-12T09:24:52;4.67;;;2.90;;
17596;SDS011;8917;50.942;6.946;2023-03-12T09:27:19;4.07;;;2.87;;
17596;SDS011;8917;50.942;6.946;2023-03-12T09:29:46;5.93;;;3.03;;
17596;SDS011;8917;50.942;6.946;2023-03-12T09:32:15;4.20;;;3.00;;
17596;SDS011;8917;50.942;6.946;2023-03-12T09:34:42;3.43;;;3.10;;
17596;SDS011;8917;50.942;6.946;2023-03-12T09:37:11;5.73;;;3.40;;
17596;SDS011;8917;50.942;6.946;2023-03-12T09:39:38;5.13;;;3.17;;
17596;SDS011;8917;50.942;6.946;2023-03-12T09:42:05;5.93;;;3.27;;
17596;SDS011;8917;50.942;6.946;2023-03-12T09:44:38;5.73;;;3.43;;
17596;SDS011;8917;50.942;6.946;2023-03-12T09:47:07;6.57;;;2.80;;
17596;SDS011;8917;50.942;6.946;2023-03-12T09:49:37;3.37;;;3.07;;
17596;SDS011;8917;50.942;6.946;2023-03-12T09:52:07;4.33;;;3.60;;
17596;SDS011;8917;50.942;6.946;2023-03-12T09:54:41;4.33;;;3.37;;
17596;SDS011;8917;50.942;6.946;2023-03-12T09:57:11;5.50;;;3.70;;
17596;SDS011;8917;50.942;6.946;2023-03-12T09:59:38;4.27;;;3.37;;
17596;SDS011;8917;50.942;6.946;2023-03-12T10:02:12;3.40;;;3.10;;
17596;SDS011;8917;50.942;6.946;2023-03-12T10:04:42;5.10;;;3.60;;
17596;SDS011;8917;50.942;6.946;2023-03-12T10:07:11;3.13;;;2.83;;
17596;SDS011;8917;50.942;6.946;2023-03-12T10:09:46;5.80;;;4.20;;
17596;SDS011;8917;50.942;6.946;2023-03-12T10:12:20;5.87;;;3.50;;
17596;SDS011;8917;50.942;6.946;2023-03-12T10:14:53;3.77;;;3.40;;
17596;SDS011;8917;50.942;6.946;2023-03-12T10:17:28;5.70;;;3.33;;
17596;SDS011;8917;50.942;6.946;2023-03-12T10:20:02;3.60;;;3.30;;
17596;SDS011;8917;50.942;6.946;2023-03-12T10:22:39;3.57;;;3.27;;
17596;SDS011;8917;50.942;6.946;2023-03-12T10:25:14;4.00;;;3.53;;
17596;SDS011;8917;50.942;6.946;2023-03-12T10:27:42;3.83;;;3.43;;
17596;SDS011;8917;50.942;6.946;2023-03-12T10:30:12;5.07;;;3.53;;
17596;SDS011;8917;50.942;6.946;2023-03-12T10:32:42;4.20;;;3.50;;
17596;SDS011;8917;50.942;6.946;2023-03-12T10:35:12;3.60;;;3.23;;
17596;SDS011;8917;50.942;6.946;2023-03-12T10:37:41;3.60;;;3.30;;
17596;SDS011;8917;50.942;6.946;2023-03-12T10:40:10;5.33;;;3.50;;
17596;SDS011;8917;50.942;6.946;2023-03-12T10:42:40;4.97;;;3.43;;
17596;SDS011;8917;50.942;6.946;2023-03-12T10:45:13;4.93;;;3.70;;
17596;SDS011;8917;50.942;6.946;2023-03-12T10:47:42;4.03;;;3.60;;
17596;SDS011;8917;50.942;6.946;2023-03-12T10:50:14;6.00;;;3.63;;
17596;SDS011;8917;50.942;6.946;2023-03-12T10:52:43;5.87;;;4.03;;
17596;SDS011;8917;50.942;6.946;2023-03-12T10:55:12;6.40;;;3.93;;
17596;SDS011;8917;50.942;6.946;2023-03-12T10:57:41;3.83;;;3.43;;
17596;SDS011;8917;50.942;6.946;2023-03-12T11:00:08;5.37;;;3.73;;
17596;SDS011;8917;50.942;6.946;2023-03-12T11:02:38;5.40;;;4.50;;
17596;SDS011;8917;50.942;6.946;2023-03-12T11:05:18;7.47;;;4.50;;
17596;SDS011;8917;50.942;6.946;2023-03-12T11:07:45;4.53;;;4.10;;
17596;SDS011;8917;50.942;6.946;2023-03-12T11:10:15;5.67;;;4.63;;
17596;SDS011;8917;50.942;6.946;2023-03-12T11:12:55;6.40;;;4.80;;
17596;SDS011;8917;50.942;6.946;2023-03-12T11:15:23;5.80;;;4.57;;
17596;SDS011;8917;50.942;6.946;2023-03-12T11:18:04;5.07;;;4.57;;
17596;SDS011;8917;50.942;6.946;2023-03-12T11:20:43;7.20;;;4.73;;
17596;SDS011;8917;50.942;6.946;2023-03-12T11:23:12;5.10;;;4.60;;
17596;SDS011;8917;50.942;6.946;2023-03-12T11:25:39;8.63;;;4.33;;
17596;SDS011;8917;50.942;6.946;2023-03-12T11:28:09;4.97;;;4.40;;
17596;SDS011;8917;50.942;6.946;2023-03-12T11:30:39;5.43;;;4.10;;
17596;SDS011;8917;50.942;6.946;2023-03-12T11:33:07;8.53;;;5.77;;
17596;SDS011;8917;50.942;6.946;2023-03-12T11:35:38;5.43;;;4.83;;
17596;SDS011;8917;50.942;6.946;2023-03-12T11:38:10;7.30;;;5.37;;
17596;SDS011;8917;50.942;6.946;2023-03-12T11:40:46;8.37;;;5.47;;
17596;SDS011;8917;50.942;6.946;2023-03-12T11:43:19;9.77;;;5.03;;
17596;SDS011;8917;50.942;6.946;2023-03-12T11:45:52;8.53;;;4.50;;
17596;SDS011;8917;50.942;6.946;2023-03-12T11:48:24;10.10;;;4.77;;
17596;SDS011;8917;50.942;6.946;2023-03-12T11:50:56;9.07;;;4.70;;
17596;SDS011;8917;50.942;6.946;2023-03-12T11:53:31;10.77;;;4.83;;
17596;SDS011;8917;50.942;6.946;2023-03-12T11:56:07;9.30;;;5.10;;
17596;SDS011;8917;50.942;6.946;2023-03-12T11:58:43;9.00;;;4.70;;
17596;SDS011;8917;50.942;6.946;2023-03-12T12:01:17;9.53;;;5.20;;
17596;SDS011;8917;50.942;6.946;2023-03-12T12:04:12;14.07;;;6.40;;
17596;SDS011;8917;50.942;6.946;2023-03-12T12:06:46;12.40;;;5.03;;
17596;SDS011;8917;50.942;6.946;2023-03-12T12:09:18;8.40;;;4.73;;
17596;SDS011;8917;50.942;6.946;2023-03-12T12:11:51;11.40;;;5.30;;
17596;SDS011;8917;50.942;6.946;2023-03-12T12:14:27;9.13;;;4.83;;
17596;SDS011;8917;50.942;6.946;2023-03-12T12:17:00;10.57;;;4.73;;
17596;SDS011;8917;50.942;6.946;2023-03-12T12:19:34;12.30;;;5.73;;
17596;SDS011;8917;50.942;6.946;2023-03-12T12:22:10;12.93;;;4.90;;
17596;SDS011;8917;50.942;6.946;2023-03-12T12:24:42;14.33;;;5.10;;
17596;SDS011;8917;50.942;6.946;2023-03-12T12:27:18;13.07;;;5.30;;
17596;SDS011;8917;50.942;6.946;2023-03-12T12:29:54;12.90;;;4.87;;
17596;SDS011;8917;50.942;6.946;2023-03-12T12:32:25;12.50;;;4.80;;
17596;SDS011;8917;50.942;6.946;2023-03-12T12:35:00;14.37;;;4.90;;
17596;SDS011;8917;50.942;6.946;2023-03-12T12:37:36;13.77;;;4.83;;
17596;SDS011;8917;50.942;6.946;2023-03-12T12:40:09;14.73;;;4.80;;
17596;SDS011;8917;50.942;6.946;2023-03-12T12:42:44;11.77;;;3.93;;
17596;SDS011;8917;50.942;6.946;2023-03-12T12:45:15;12.70;;;4.23;;
17596;SDS011;8917;50.942;6.946;2023-03-12T12:47:44;13.80;;;4.43;;
17596;SDS011;8917;50.942;6.946;2023-03-12T12:50:16;10.60;;;4.13;;
17596;SDS011;8917;50.942;6.946;2023-03-12T12:52:45;12.73;;;4.27;;
17596;SDS011;8917;50.942;6.946;2023-03-12T12:55:18;13.27;;;3.90;;
17596;SDS011;8917;50.942;6.946;2023-03-12T12:57:48;14.10;;;4.93;;
17596;SDS011;8917;50.942;6.946;2023-03-12T13:00:24;13.60;;;3.77;;
17596;SDS011;8917;50.942;6.946;2023-03-12T13:02:57;11.67;;;3.53;;
17596;SDS011;8917;50.942;6.946;2023-03-12T13:05:25;11.43;;;3.63;;
17596;SDS011;8917;50.942;6.946;2023-03-12T13:07:53;13.17;;;4.20;;
17596;SDS011;8917;50.942;6.946;2023-03-12T13:10:36;9.63;;;3.77;;
17596;SDS011;8917;50.942;6.946;2023-03-12T13:13:08;11.83;;;4.00;;
17596;SDS011;8917;50.942;6.946;2023-03-12T13:15:37;10.30;;;3.23;;
17596;SDS011;8917;50.942;6.946;2023-03-12T13:18:08;9.53;;;3.50;;
17596;SDS011;8917;50.942;6.946;2023-03-12T13:20:37;10.80;;;3.20;;
17596;SDS011;8917;50.942;6.946;2023-03-12T13:23:20;11.73;;;3.80;;
17596;SDS011;8917;50.942;6.946;2023-03-12T13:25:54;11.37;;;4.43;;
17596;SDS011;8917;50.942;6.946;2023-03-12T13:28:29;16.50;;;4.43;;
17596;SDS011;8917;50.942;6.946;2023-03-12T13:31:00;13.50;;;4.37;;
17596;SDS011;8917;50.942;6.946;2023-03-12T13:33:41;12.90;;;4.20;;
17596;SDS011;8917;50.942;6.946;2023-03-12T13:36:10;16.97;;;3.93;;
17596;SDS011;8917;50.942;6.946;2023-03-12T13:38:54;15.07;;;3.33;;
17596;SDS011;8917;50.942;6.946;2023-03-12T13:41:30;12.93;;;3.43;;
17596;SDS011;8917;50.942;6.946;2023-03-12T13:43:57;11.27;;;3.80;;
17596;SDS011;8917;50.942;6.946;2023-03-12T13:46:39;13.17;;;3.63;;
17596;SDS011;8917;50.942;6.946;2023-03-12T13:49:11;14.17;;;4.27;;
17596;SDS011;8917;50.942;6.946;2023-03-12T13:51:43;15.20;;;3.83;;
17596;SDS011;8917;50.942;6.946;2023-03-12T13:54:14;14.23;;;4.20;;
17596;SDS011;8917;50.942;6.946;2023-03-12T13:56:45;17.43;;;4.37;;
17596;SDS011;8917;50.942;6.946;2023-03-12T13:59:14;14.67;;;4.40;;
17596;SDS011;8917;50.942;6.946;2023-03-12T14:01:44;10.13;;;3.60;;
17596;SDS011;8917;50.942;6.946;2023-03-12T14:04:14;16.53;;;3.90;;
17596;SDS011;8917;50.942;6.946;2023-03-12T14:06:48;10.40;;;3.87;;
17596;SDS011;8917;50.942;6.946;2023-03-12T14:09:19;12.47;;;4.20;;
17596;SDS011;8917;50.942;6.946;2023-03-12T14:11:53;20.77;;;3.97;;
17596;SDS011;8917;50.942;6.946;2023-03-12T14:14:28;14.20;;;4.83;;
17596;SDS011;8917;50.942;6.946;2023-03-12T14:16:58;16.53;;;4.53;;
17596;SDS011;8917;50.942;6.946;2023-03-12T14:19:27;12.97;;;3.47;;
17596;SDS011;8917;50.942;6.946;2023-03-12T14:21:55;11.97;;;3.87;;
17596;SDS011;8917;50.942;6.946;2023-03-12T14:24:27;17.13;;;3.90;;
17596;SDS011;8917;50.942;6.946;2023-03-12T14:26:55;10.57;;;3.83;;
17596;SDS011;8917;50.942;6.946;2023-03-12T14:29:24;14.00;;;3.60;;
17596;SDS011;8917;50.942;6.946;2023-03-12T14:31:53;17.07;;;4.50;;
17596;SDS011;8917;50.942;6.946;2023-03-12T14:34:23;12.97;;;3.63;;
17596;SDS011;8917;50.942;6.946;2023-03-12T14:36:54;14.10;;;4.43;;
17596;SDS011;8917;50.942;6.946;2023-03-12T14:39:24;12.70;;;3.37;;
17596;SDS011;8917;50.942;6.946;2023-03-12T14:41:54;13.57;;;3.57;;
17596;SDS011;8917;50.942;6.946;2023-03-12T14:44:22;14.90;;;3.90;;
17596;SDS011;8917;50.942;6.946;2023-03-12T14:46:56;8.17;;;3.60;;
17596;SDS011;8917;50.942;6.946;2023-03-12T14:49:25;12.80;;;3.97;;
17596;SDS011;8917;50.942;6.946;2023-03-12T14:51:52;13.40;;;3.57;;
17596;SDS011;8917;50.942;6.946;2023-03-12T14:54:21;11.07;;;3.70;;
17596;SDS011;8917;50.942;6.946;2023-03-12T14:56:48;16.23;;;4.07;;
17596;SDS011;8917;50.942;6.946;2023-03-12T14:59:20;12.80;;;4.10;;
17596;SDS011;8917;50.942;6.946;2023-03-12T15:01:47;10.57;;;3.50;;
17596;SDS011;8917;50.942;6.946;2023-03-12T15:04:16;13.13;;;3.97;;
17596;SDS011;8917;50.942;6.946;2023-03-12T15:06:46;14.93;;;4.37;;
17596;SDS011;8917;50.942;6.946;2023-03-12T15:09:15;10.90;;;3.43;;